• Join FlightAware (Why Join?)
  • Login
  • US Flag 
06:39AM EDT


 

Airport Tracker/Info


-or-


 

Live Flight TrackerFlight Track Log ✈ EGF4393 ✈ 28-Apr-2013 ✈ KORD - KCWA

Flight Track Log - Related Links

Times and Time Zones

All times are in EDT time to prevent confusion due to time zone crossing. See the EGF4393 flight status page for this flight to view local times or setup timezone preferences in your user account.

Time Position Orientation Groundspeed Altitude Reporting Facility
EDT Latitude Longitude Course Direction KTS MPH feet Rate Location/Type
03:46PM 41.9667 -87.8000 324° Northwest 207 238 3,400  Level Chicago TRACON
03:47PM 42.1441 -87.9568 350° North  Level FlightAware Approximate
03:48PM 42.2328 -87.9874 350° North  Level FlightAware Approximate
03:48PM 42.0569 -87.7186 34° Northeast 261 300 8,500  Level Chicago Center
03:49PM 42.3231 -88.0099 350° North  Level FlightAware Approximate
03:50PM 42.4105 -88.0469 340° North  Level FlightAware Approximate
03:50PM 42.1261 -87.7664 333° Northwest 281 323 10,400  Level Chicago Center
03:51PM 42.5008 -88.0675 324° Northwest  Level FlightAware Approximate
03:51PM 42.2094 -87.7706 358° North 302 348 11,600  Level Chicago Center
03:52PM 42.3033 -87.7872 353° North 334 384 12,700 1,440 Climbing Chicago Center
03:53PM 42.3942 -87.8572 330° Northwest 356 410 14,600 1,860 Climbing Chicago Center
03:54PM 42.4786 -87.9178 332° Northwest 344 396 16,600 1,980 Climbing Chicago Center
03:55PM 42.5753 -87.9886 332° Northwest 339 390 18,700 1,680 Climbing Chicago Center
03:56PM 42.6589 -88.0508 331° Northwest 342 394 20,200 1,320 Climbing Chicago Center
03:57PM 42.7464 -88.1147 332° Northwest 353 406 21,500 840 Climbing Chicago Center
03:58PM 42.8392 -88.1828 332° Northwest 374 430 22,000 240 Climbing Chicago Center
03:59PM 42.9383 -88.2556 332° Northwest 402 463 22,000  Level Chicago Center
04:00PM 43.0400 -88.3325 331° Northwest 416 479 22,000  Level Chicago Center
04:01PM 43.1603 -88.4200 332° Northwest 418 481 22,000  Level Chicago Center
04:02PM 43.2633 -88.4981 331° Northwest 419 482 22,000  Level Chicago Center
04:03PM 43.3689 -88.5778 331° Northwest 423 487 22,000  Level Chicago Center
04:04PM 43.4767 -88.6589 331° Northwest 427 491 22,000  Level Chicago Center
04:05PM 43.5797 -88.7364 331° Northwest 419 482 22,000  Level Chicago Center
04:06PM 43.6481 -88.7894 331° Northwest 419 482 22,000 -60 Level Minneapolis Center
04:07PM 43.7494 -88.8656 332° Northwest 417 480 21,900 -480 Descending Minneapolis Center
04:07PM 43.7831 -88.8917 331° Northwest 414 476 21,400 -1,800 Descending Chicago Center
04:08PM 43.8494 -88.9433 331° Northwest 412 474 20,100 -2,040 Descending Minneapolis Center
04:09PM 43.9483 -89.0189 331° Northwest 407 468 18,000 -2,040 Descending Minneapolis Center
04:10PM 44.0547 -89.1008 331° Northwest 395 455 16,000 -1,800 Descending Minneapolis Center
04:11PM 44.1489 -89.1747 331° Northwest 375 432 14,400 -1,800 Descending Minneapolis Center
04:12PM 44.2425 -89.2464 331° Northwest 366 421 12,400 -1,740 Descending Minneapolis Center
04:13PM 44.3283 -89.3153 330° Northwest 341 392 10,900 -1,380 Descending Minneapolis Center
04:14PM 44.4003 -89.3697 332° Northwest 285 328 9,600 -1,560 Descending Minneapolis Center
04:15PM 44.4636 -89.4197 331° Northwest 274 315 7,800 -1,800 Descending Minneapolis Center
04:16PM 44.5308 -89.4736 330° Northwest 267 307 6,000 -1,740 Descending Minneapolis Center
04:17PM 44.6047 -89.4906 351° North 261 300 4,300 -1,680 Descending Minneapolis Center